Terminal Aerodrome Forecast
Issued by NWS

Home | Current Version | Previous Version | Graphics & Text | Print | Product List | Glossary On
Versions: 1 2 3 4 5 6 7 8 9 10 11 12 13 14 15 16 17 18 19 20 21 22 23 24 25 26 27
000
FTUS45 KGGW 261200 AAA
TAFOLF
TAF AMD
KOLF 261209Z 2612/2712 VRB03KT P6SM FEW200
      TEMPO 2612/2614 4SM BR
     FM262100 15007KT P6SM SCT060
     FM270300 VRB05KT P6SM VCSH BKN090=

USA.gov is the U.S. government's official web portal to all federal, state and local government web resources and services.